sensor_id;sensor_type;location;lat;lon;timestamp;pressure;altitude;pressure_sealevel;temperature;humidity
52983;BME280;48698;45.736;13.926;2022-10-15T00:00:33;97671.47;;;12.58;100.00
52983;BME280;48698;45.736;13.926;2022-10-15T00:05:40;97478.31;;;10.85;100.00
52983;BME280;48698;45.736;13.926;2022-10-15T00:10:44;97507.63;;;10.99;100.00
52983;BME280;48698;45.736;13.926;2022-10-15T00:15:48;97591.44;;;11.37;100.00
52983;BME280;48698;45.736;13.926;2022-10-15T00:21:05;97535.25;;;10.64;100.00
52983;BME280;48698;45.736;13.926;2022-10-15T00:26:12;97678.66;;;11.31;100.00
52983;BME280;48698;45.736;13.926;2022-10-15T00:31:17;97626.28;;;11.00;100.00
52983;BME280;48698;45.736;13.926;2022-10-15T00:36:31;97678.81;;;11.28;100.00
52983;BME280;48698;45.736;13.926;2022-10-15T00:41:40;97596.63;;;11.08;100.00
52983;BME280;48698;45.736;13.926;2022-10-15T00:46:44;97523.03;;;10.77;100.00
52983;BME280;48698;45.736;13.926;2022-10-15T00:51:57;97582.91;;;11.00;100.00
52983;BME280;48698;45.736;13.926;2022-10-15T00:57:04;97396.38;;;9.96;100.00
52983;BME280;48698;45.736;13.926;2022-10-15T01:02:12;97596.75;;;10.89;100.00
52983;BME280;48698;45.736;13.926;2022-10-15T01:07:16;97583.59;;;10.70;100.00
52983;BME280;48698;45.736;13.926;2022-10-15T01:18:14;97629.13;;;11.13;100.00
52983;BME280;48698;45.736;13.926;2022-10-15T01:34:52;97585.75;;;10.79;100.00
52983;BME280;48698;45.736;13.926;2022-10-15T01:40:04;97545.09;;;10.45;100.00
52983;BME280;48698;45.736;13.926;2022-10-15T01:45:13;97580.16;;;10.51;100.00
52983;BME280;48698;45.736;13.926;2022-10-15T01:50:20;97441.44;;;9.45;100.00
52983;BME280;48698;45.736;13.926;2022-10-15T01:55:26;97588.97;;;10.52;100.00
52983;BME280;48698;45.736;13.926;2022-10-15T02:00:29;97417.06;;;9.55;100.00
52983;BME280;48698;45.736;13.926;2022-10-15T02:05:48;97493.19;;;10.05;100.00
52983;BME280;48698;45.736;13.926;2022-10-15T02:11:05;97523.59;;;10.33;100.00
52983;BME280;48698;45.736;13.926;2022-10-15T02:21:37;97573.41;;;10.78;100.00
52983;BME280;48698;45.736;13.926;2022-10-15T02:26:45;97508.88;;;10.44;100.00
52983;BME280;48698;45.736;13.926;2022-10-15T02:31:49;97577.75;;;10.97;100.00
52983;BME280;48698;45.736;13.926;2022-10-15T02:36:57;97438.88;;;9.95;100.00
52983;BME280;48698;45.736;13.926;2022-10-15T02:42:03;97376.22;;;9.59;100.00
52983;BME280;48698;45.736;13.926;2022-10-15T02:47:08;97439.53;;;10.00;100.00
52983;BME280;48698;45.736;13.926;2022-10-15T02:52:12;97485.19;;;10.23;100.00
52983;BME280;48698;45.736;13.926;2022-10-15T02:57:16;97398.81;;;9.83;100.00
52983;BME280;48698;45.736;13.926;2022-10-15T03:02:20;97432.31;;;10.02;100.00
52983;BME280;48698;45.736;13.926;2022-10-15T03:07:24;97341.13;;;9.54;100.00
52983;BME280;48698;45.736;13.926;2022-10-15T03:12:35;97491.63;;;10.35;100.00
52983;BME280;48698;45.736;13.926;2022-10-15T03:17:39;97438.00;;;10.11;100.00
52983;BME280;48698;45.736;13.926;2022-10-15T03:22:43;97565.53;;;10.77;100.00
52983;BME280;48698;45.736;13.926;2022-10-15T03:27:46;97525.81;;;10.41;100.00
52983;BME280;48698;45.736;13.926;2022-10-15T03:32:50;97555.00;;;10.58;100.00
52983;BME280;48698;45.736;13.926;2022-10-15T03:37:54;97326.38;;;9.31;100.00
52983;BME280;48698;45.736;13.926;2022-10-15T03:42:58;97498.88;;;10.49;100.00
52983;BME280;48698;45.736;13.926;2022-10-15T03:48:02;97354.69;;;9.48;100.00
52983;BME280;48698;45.736;13.926;2022-10-15T03:53:06;97403.03;;;9.88;100.00
52983;BME280;48698;45.736;13.926;2022-10-15T03:58:09;97563.84;;;10.92;100.00
52983;BME280;48698;45.736;13.926;2022-10-15T04:03:13;97528.59;;;10.72;100.00
52983;BME280;48698;45.736;13.926;2022-10-15T04:08:17;97557.94;;;10.86;100.00
52983;BME280;48698;45.736;13.926;2022-10-15T04:13:21;97483.03;;;10.47;100.00
52983;BME280;48698;45.736;13.926;2022-10-15T04:18:25;97574.25;;;11.12;100.00
52983;BME280;48698;45.736;13.926;2022-10-15T04:23:29;97533.84;;;10.89;100.00
52983;BME280;48698;45.736;13.926;2022-10-15T04:28:32;97525.53;;;10.80;100.00
52983;BME280;48698;45.736;13.926;2022-10-15T04:33:37;97394.25;;;10.03;100.00
52983;BME280;48698;45.736;13.926;2022-10-15T04:38:40;97414.22;;;10.10;100.00
52983;BME280;48698;45.736;13.926;2022-10-15T04:43:44;97400.06;;;9.76;100.00
52983;BME280;48698;45.736;13.926;2022-10-15T04:48:57;97332.88;;;9.43;100.00
52983;BME280;48698;45.736;13.926;2022-10-15T04:54:01;97544.53;;;10.55;100.00
52983;BME280;48698;45.736;13.926;2022-10-15T04:59:07;97443.03;;;9.83;100.00
52983;BME280;48698;45.736;13.926;2022-10-15T05:04:11;97373.66;;;9.41;100.00
52983;BME280;48698;45.736;13.926;2022-10-15T05:09:16;97537.47;;;10.38;100.00
52983;BME280;48698;45.736;13.926;2022-10-15T05:14:20;97606.84;;;10.82;100.00
52983;BME280;48698;45.736;13.926;2022-10-15T05:19:24;97516.09;;;10.57;100.00
52983;BME280;48698;45.736;13.926;2022-10-15T05:24:27;97376.44;;;9.72;100.00
52983;BME280;48698;45.736;13.926;2022-10-15T05:29:31;97376.00;;;9.97;100.00
52983;BME280;48698;45.736;13.926;2022-10-15T05:34:34;97532.59;;;10.97;100.00
52983;BME280;48698;45.736;13.926;2022-10-15T05:39:38;97475.84;;;10.49;100.00
52983;BME280;48698;45.736;13.926;2022-10-15T05:44:42;97534.06;;;10.69;100.00
52983;BME280;48698;45.736;13.926;2022-10-15T05:49:46;97338.69;;;9.67;100.00
52983;BME280;48698;45.736;13.926;2022-10-15T05:54:59;97392.38;;;10.05;100.00
52983;BME280;48698;45.736;13.926;2022-10-15T06:00:04;97342.22;;;9.67;100.00
52983;BME280;48698;45.736;13.926;2022-10-15T06:05:08;97332.03;;;9.75;100.00
52983;BME280;48698;45.736;13.926;2022-10-15T06:10:16;97572.22;;;11.17;100.00
52983;BME280;48698;45.736;13.926;2022-10-15T06:15:20;97584.03;;;11.27;100.00
52983;BME280;48698;45.736;13.926;2022-10-15T06:20:24;97613.31;;;11.43;100.00
52983;BME280;48698;45.736;13.926;2022-10-15T06:25:27;97534.38;;;11.12;100.00
52983;BME280;48698;45.736;13.926;2022-10-15T06:30:31;97595.66;;;11.41;100.00
52983;BME280;48698;45.736;13.926;2022-10-15T06:35:35;97536.28;;;11.10;100.00
52983;BME280;48698;45.736;13.926;2022-10-15T06:40:39;97369.00;;;10.11;100.00
52983;BME280;48698;45.736;13.926;2022-10-15T06:45:42;97609.63;;;11.45;100.00
52983;BME280;48698;45.736;13.926;2022-10-15T06:50:47;97379.88;;;10.24;100.00
52983;BME280;48698;45.736;13.926;2022-10-15T06:55:50;97568.03;;;11.60;100.00
52983;BME280;48698;45.736;13.926;2022-10-15T07:01:02;97629.50;;;12.02;100.00
52983;BME280;48698;45.736;13.926;2022-10-15T07:06:07;97634.47;;;11.93;100.00
52983;BME280;48698;45.736;13.926;2022-10-15T07:11:11;97587.72;;;11.73;100.00
52983;BME280;48698;45.736;13.926;2022-10-15T07:16:15;97587.78;;;11.71;100.00
52983;BME280;48698;45.736;13.926;2022-10-15T07:21:20;97530.28;;;11.37;100.00
52983;BME280;48698;45.736;13.926;2022-10-15T07:26:23;97521.00;;;11.45;100.00
52983;BME280;48698;45.736;13.926;2022-10-15T07:31:27;97606.44;;;12.17;100.00
52983;BME280;48698;45.736;13.926;2022-10-15T07:36:30;97454.72;;;11.41;100.00
52983;BME280;48698;45.736;13.926;2022-10-15T07:41:34;97588.84;;;12.44;100.00
52983;BME280;48698;45.736;13.926;2022-10-15T07:46:38;97553.84;;;12.36;100.00
52983;BME280;48698;45.736;13.926;2022-10-15T07:51:42;97509.09;;;12.27;100.00
52983;BME280;48698;45.736;13.926;2022-10-15T07:56:45;97610.75;;;13.07;100.00
52983;BME280;48698;45.736;13.926;2022-10-15T08:01:49;97439.31;;;12.22;100.00
52983;BME280;48698;45.736;13.926;2022-10-15T08:06:53;97666.25;;;13.59;100.00
52983;BME280;48698;45.736;13.926;2022-10-15T08:11:57;97696.44;;;13.73;100.00
52983;BME280;48698;45.736;13.926;2022-10-15T08:17:05;97672.09;;;13.92;100.00
52983;BME280;48698;45.736;13.926;2022-10-15T08:22:09;97650.91;;;14.03;100.00
52983;BME280;48698;45.736;13.926;2022-10-15T08:27:14;97675.81;;;14.71;100.00
52983;BME280;48698;45.736;13.926;2022-10-15T08:32:18;97666.44;;;14.91;100.00
52983;BME280;48698;45.736;13.926;2022-10-15T08:37:22;97601.59;;;14.75;100.00
52983;BME280;48698;45.736;13.926;2022-10-15T08:42:36;97659.94;;;16.20;100.00
52983;BME280;48698;45.736;13.926;2022-10-15T08:47:48;97619.13;;;17.10;100.00
52983;BME280;48698;45.736;13.926;2022-10-15T08:52:54;97628.97;;;17.99;100.00
52983;BME280;48698;45.736;13.926;2022-10-15T08:58:11;97659.31;;;19.08;100.00
52983;BME280;48698;45.736;13.926;2022-10-15T09:03:30;97656.09;;;19.14;100.00
52983;BME280;48698;45.736;13.926;2022-10-15T09:08:48;97501.22;;;18.59;100.00
52983;BME280;48698;45.736;13.926;2022-10-15T09:13:53;97426.56;;;17.67;100.00
52983;BME280;48698;45.736;13.926;2022-10-15T09:19:01;97661.69;;;17.82;100.00
52983;BME280;48698;45.736;13.926;2022-10-15T09:24:11;97590.63;;;17.53;100.00
52983;BME280;48698;45.736;13.926;2022-10-15T09:29:36;97674.84;;;17.96;100.00
52983;BME280;48698;45.736;13.926;2022-10-15T09:45:30;97672.13;;;18.52;100.00
52983;BME280;48698;45.736;13.926;2022-10-15T09:50:41;97462.00;;;17.39;100.00
52983;BME280;48698;45.736;13.926;2022-10-15T09:55:51;97636.22;;;18.20;100.00
52983;BME280;48698;45.736;13.926;2022-10-15T10:01:02;97701.00;;;18.05;100.00
52983;BME280;48698;45.736;13.926;2022-10-15T10:06:11;97588.69;;;18.63;100.00
52983;BME280;48698;45.736;13.926;2022-10-15T10:11:16;97637.19;;;18.52;100.00
52983;BME280;48698;45.736;13.926;2022-10-15T10:16:21;97679.72;;;18.25;100.00
52983;BME280;48698;45.736;13.926;2022-10-15T10:21:36;97571.44;;;17.91;100.00
52983;BME280;48698;45.736;13.926;2022-10-15T10:26:41;97485.66;;;17.45;100.00
52983;BME280;48698;45.736;13.926;2022-10-15T10:31:46;97708.47;;;18.78;100.00
52983;BME280;48698;45.736;13.926;2022-10-15T10:36:53;97645.94;;;18.43;100.00
52983;BME280;48698;45.736;13.926;2022-10-15T10:42:01;97699.91;;;18.84;100.00
52983;BME280;48698;45.736;13.926;2022-10-15T10:47:13;97699.38;;;18.90;100.00
52983;BME280;48698;45.736;13.926;2022-10-15T10:52:27;97679.25;;;19.05;100.00
52983;BME280;48698;45.736;13.926;2022-10-15T10:57:38;97666.75;;;19.16;100.00
52983;BME280;48698;45.736;13.926;2022-10-15T11:02:44;97622.56;;;18.66;100.00
52983;BME280;48698;45.736;13.926;2022-10-15T11:08:12;97674.94;;;19.14;100.00
52983;BME280;48698;45.736;13.926;2022-10-15T11:30:25;97680.06;;;19.38;100.00
52983;BME280;48698;45.736;13.926;2022-10-15T11:40:58;97677.38;;;19.38;100.00
52983;BME280;48698;45.736;13.926;2022-10-15T11:51:37;97672.56;;;19.62;100.00
52983;BME280;48698;45.736;13.926;2022-10-15T11:56:49;97603.81;;;19.17;100.00
52983;BME280;48698;45.736;13.926;2022-10-15T12:02:21;97672.09;;;19.78;100.00
52983;BME280;48698;45.736;13.926;2022-10-15T12:07:36;97601.50;;;19.33;100.00
52983;BME280;48698;45.736;13.926;2022-10-15T12:18:00;97640.44;;;19.70;100.00
52983;BME280;48698;45.736;13.926;2022-10-15T12:23:25;97520.28;;;19.58;100.00
52983;BME280;48698;45.736;13.926;2022-10-15T12:28:47;97618.25;;;19.57;100.00
52983;BME280;48698;45.736;13.926;2022-10-15T12:33:53;97579.84;;;19.55;100.00
52983;BME280;48698;45.736;13.926;2022-10-15T12:39:02;97542.38;;;18.80;100.00
52983;BME280;48698;45.736;13.926;2022-10-15T12:44:33;97589.00;;;19.22;100.00
52983;BME280;48698;45.736;13.926;2022-10-15T12:54:44;97567.84;;;19.18;100.00
52983;BME280;48698;45.736;13.926;2022-10-15T12:59:56;97519.13;;;19.21;100.00
52983;BME280;48698;45.736;13.926;2022-10-15T13:05:01;97548.72;;;19.41;100.00
52983;BME280;48698;45.736;13.926;2022-10-15T13:10:18;97610.88;;;19.59;100.00
52983;BME280;48698;45.736;13.926;2022-10-15T13:15:25;97558.53;;;19.22;100.00
52983;BME280;48698;45.736;13.926;2022-10-15T13:20:35;97376.31;;;18.11;100.00
52983;BME280;48698;45.736;13.926;2022-10-15T13:25:39;97539.16;;;18.86;100.00
52983;BME280;48698;45.736;13.926;2022-10-15T13:30:47;97505.78;;;18.89;100.00
52983;BME280;48698;45.736;13.926;2022-10-15T13:35:52;97539.25;;;18.75;100.00
52983;BME280;48698;45.736;13.926;2022-10-15T13:40:56;97564.16;;;18.56;100.00
52983;BME280;48698;45.736;13.926;2022-10-15T13:46:00;97566.09;;;18.66;100.00
52983;BME280;48698;45.736;13.926;2022-10-15T13:51:04;97622.66;;;19.17;100.00
52983;BME280;48698;45.736;13.926;2022-10-15T14:01:26;97617.50;;;19.45;100.00
52983;BME280;48698;45.736;13.926;2022-10-15T14:06:32;97617.28;;;19.58;100.00
52983;BME280;48698;45.736;13.926;2022-10-15T14:11:36;97605.88;;;19.45;100.00
52983;BME280;48698;45.736;13.926;2022-10-15T14:16:45;97519.50;;;18.65;100.00
52983;BME280;48698;45.736;13.926;2022-10-15T14:21:50;97621.91;;;19.56;100.00
52983;BME280;48698;45.736;13.926;2022-10-15T14:26:54;97620.88;;;19.27;100.00
52983;BME280;48698;45.736;13.926;2022-10-15T14:32:27;97583.94;;;19.08;100.00
52983;BME280;48698;45.736;13.926;2022-10-15T14:47:44;97632.00;;;18.92;100.00
52983;BME280;48698;45.736;13.926;2022-10-15T14:52:52;97518.56;;;18.23;100.00
52983;BME280;48698;45.736;13.926;2022-10-15T14:57:56;97447.84;;;17.59;100.00
52983;BME280;48698;45.736;13.926;2022-10-15T15:03:05;97612.50;;;18.36;100.00
52983;BME280;48698;45.736;13.926;2022-10-15T15:08:09;97524.19;;;17.88;100.00
52983;BME280;48698;45.736;13.926;2022-10-15T15:13:18;97576.19;;;17.98;100.00
52983;BME280;48698;45.736;13.926;2022-10-15T15:18:22;97533.03;;;17.68;100.00
52983;BME280;48698;45.736;13.926;2022-10-15T15:39:55;97647.16;;;17.74;100.00
52983;BME280;48698;45.736;13.926;2022-10-15T15:44:58;97615.47;;;17.11;100.00
52983;BME280;48698;45.736;13.926;2022-10-15T15:50:02;97479.38;;;16.33;100.00
52983;BME280;48698;45.736;13.926;2022-10-15T15:55:07;97509.00;;;16.43;100.00
52983;BME280;48698;45.736;13.926;2022-10-15T16:00:12;97661.22;;;17.09;100.00
52983;BME280;48698;45.736;13.926;2022-10-15T16:05:16;97659.53;;;16.84;100.00
52983;BME280;48698;45.736;13.926;2022-10-15T16:10:19;97625.16;;;16.07;100.00
52983;BME280;48698;45.736;13.926;2022-10-15T16:15:23;97670.31;;;15.75;100.00
52983;BME280;48698;45.736;13.926;2022-10-15T16:20:26;97584.66;;;14.62;100.00
52983;BME280;48698;45.736;13.926;2022-10-15T16:25:30;97740.13;;;15.47;100.00
52983;BME280;48698;45.736;13.926;2022-10-15T16:30:34;97743.66;;;14.95;100.00
52983;BME280;48698;45.736;13.926;2022-10-15T16:35:38;97628.56;;;13.63;100.00
52983;BME280;48698;45.736;13.926;2022-10-15T16:40:45;97775.25;;;14.35;100.00
52983;BME280;48698;45.736;13.926;2022-10-15T16:56:22;97755.66;;;13.36;100.00
52983;BME280;48698;45.736;13.926;2022-10-15T17:01:28;97635.31;;;12.54;100.00
